sensor_id;sensor_type;location;lat;lon;timestamp;temperature;humidity
22738;DHT22;11536;50.860;4.286;2023-03-21T00:00:52;11.80;99.90
22738;DHT22;11536;50.860;4.286;2023-03-21T00:03:17;11.70;99.90
22738;DHT22;11536;50.860;4.286;2023-03-21T00:05:44;11.70;99.90
22738;DHT22;11536;50.860;4.286;2023-03-21T00:08:16;11.80;99.90
22738;DHT22;11536;50.860;4.286;2023-03-21T00:10:42;11.80;99.90
22738;DHT22;11536;50.860;4.286;2023-03-21T00:13:12;11.80;99.90
22738;DHT22;11536;50.860;4.286;2023-03-21T00:15:38;11.80;99.90
22738;DHT22;11536;50.860;4.286;2023-03-21T00:18:19;11.80;99.90
22738;DHT22;11536;50.860;4.286;2023-03-21T00:20:58;11.80;99.90
22738;DHT22;11536;50.860;4.286;2023-03-21T00:23:25;11.80;99.90
22738;DHT22;11536;50.860;4.286;2023-03-21T00:25:51;11.70;99.90
22738;DHT22;11536;50.860;4.286;2023-03-21T00:28:16;11.70;99.90
22738;DHT22;11536;50.860;4.286;2023-03-21T00:30:42;11.70;99.90
22738;DHT22;11536;50.860;4.286;2023-03-21T00:33:08;11.70;99.90
22738;DHT22;11536;50.860;4.286;2023-03-21T00:35:33;11.80;99.90
22738;DHT22;11536;50.860;4.286;2023-03-21T00:37:59;11.70;99.90
22738;DHT22;11536;50.860;4.286;2023-03-21T00:40:24;11.70;99.90
22738;DHT22;11536;50.860;4.286;2023-03-21T00:42:50;11.70;99.90
22738;DHT22;11536;50.860;4.286;2023-03-21T00:45:16;11.70;99.90
22738;DHT22;11536;50.860;4.286;2023-03-21T00:47:44;11.70;99.90
22738;DHT22;11536;50.860;4.286;2023-03-21T00:50:11;11.70;99.90
22738;DHT22;11536;50.860;4.286;2023-03-21T00:52:37;11.70;99.90
22738;DHT22;11536;50.860;4.286;2023-03-21T00:55:04;11.70;99.90
22738;DHT22;11536;50.860;4.286;2023-03-21T00:57:30;11.70;99.90
22738;DHT22;11536;50.860;4.286;2023-03-21T00:59:56;11.70;99.90
22738;DHT22;11536;50.860;4.286;2023-03-21T01:02:23;11.70;99.90
22738;DHT22;11536;50.860;4.286;2023-03-21T01:04:54;11.70;99.90
22738;DHT22;11536;50.860;4.286;2023-03-21T01:07:20;11.70;99.90
22738;DHT22;11536;50.860;4.286;2023-03-21T01:09:45;11.70;99.90
22738;DHT22;11536;50.860;4.286;2023-03-21T01:12:11;11.70;99.90
22738;DHT22;11536;50.860;4.286;2023-03-21T01:14:37;11.80;99.90
22738;DHT22;11536;50.860;4.286;2023-03-21T01:17:03;11.70;99.90
22738;DHT22;11536;50.860;4.286;2023-03-21T01:19:29;11.70;99.90
22738;DHT22;11536;50.860;4.286;2023-03-21T01:21:56;11.80;99.90
22738;DHT22;11536;50.860;4.286;2023-03-21T01:24:22;11.80;99.90
22738;DHT22;11536;50.860;4.286;2023-03-21T01:26:47;11.80;99.90
22738;DHT22;11536;50.860;4.286;2023-03-21T01:29:13;11.80;99.90
22738;DHT22;11536;50.860;4.286;2023-03-21T01:31:38;11.80;99.90
22738;DHT22;11536;50.860;4.286;2023-03-21T01:34:04;11.80;99.90
22738;DHT22;11536;50.860;4.286;2023-03-21T01:36:30;11.70;99.90
22738;DHT22;11536;50.860;4.286;2023-03-21T01:38:55;11.80;99.90
22738;DHT22;11536;50.860;4.286;2023-03-21T01:41:28;11.70;99.90
22738;DHT22;11536;50.860;4.286;2023-03-21T01:43:54;11.80;99.90
22738;DHT22;11536;50.860;4.286;2023-03-21T01:49:11;11.80;99.90
22738;DHT22;11536;50.860;4.286;2023-03-21T01:51:41;11.70;99.90
22738;DHT22;11536;50.860;4.286;2023-03-21T01:54:12;11.80;99.90
22738;DHT22;11536;50.860;4.286;2023-03-21T01:56:39;11.80;99.90
22738;DHT22;11536;50.860;4.286;2023-03-21T01:59:30;11.80;99.90
22738;DHT22;11536;50.860;4.286;2023-03-21T02:02:02;11.80;99.90
22738;DHT22;11536;50.860;4.286;2023-03-21T02:04:33;11.80;99.90
22738;DHT22;11536;50.860;4.286;2023-03-21T02:07:05;11.80;99.90
22738;DHT22;11536;50.860;4.286;2023-03-21T02:09:34;11.80;99.90
22738;DHT22;11536;50.860;4.286;2023-03-21T02:12:01;11.80;99.90
22738;DHT22;11536;50.860;4.286;2023-03-21T02:14:27;11.80;99.90
22738;DHT22;11536;50.860;4.286;2023-03-21T02:30:35;11.80;99.90
22738;DHT22;11536;50.860;4.286;2023-03-21T02:33:18;11.70;99.90
22738;DHT22;11536;50.860;4.286;2023-03-21T02:36:14;11.70;99.90
22738;DHT22;11536;50.860;4.286;2023-03-21T02:38:46;11.70;99.90
22738;DHT22;11536;50.860;4.286;2023-03-21T02:41:45;11.80;99.90
22738;DHT22;11536;50.860;4.286;2023-03-21T02:47:00;11.80;99.90
22738;DHT22;11536;50.860;4.286;2023-03-21T02:50:17;11.80;99.90
22738;DHT22;11536;50.860;4.286;2023-03-21T02:52:26;11.80;99.90
22738;DHT22;11536;50.860;4.286;2023-03-21T02:54:55;11.80;99.90
22738;DHT22;11536;50.860;4.286;2023-03-21T02:57:21;11.80;99.90
22738;DHT22;11536;50.860;4.286;2023-03-21T02:59:48;11.80;99.90
22738;DHT22;11536;50.860;4.286;2023-03-21T03:02:16;11.80;99.90
22738;DHT22;11536;50.860;4.286;2023-03-21T03:04:43;11.80;99.90
22738;DHT22;11536;50.860;4.286;2023-03-21T03:14:56;11.80;99.90
22738;DHT22;11536;50.860;4.286;2023-03-21T03:18:08;11.90;99.90
22738;DHT22;11536;50.860;4.286;2023-03-21T03:20:27;11.90;99.90
22738;DHT22;11536;50.860;4.286;2023-03-21T03:26:06;11.80;99.90
22738;DHT22;11536;50.860;4.286;2023-03-21T03:28:40;11.90;99.90
22738;DHT22;11536;50.860;4.286;2023-03-21T03:31:07;11.90;99.90
22738;DHT22;11536;50.860;4.286;2023-03-21T03:33:40;11.90;99.90
22738;DHT22;11536;50.860;4.286;2023-03-21T03:36:09;11.90;99.90
22738;DHT22;11536;50.860;4.286;2023-03-21T03:38:36;11.90;99.90
22738;DHT22;11536;50.860;4.286;2023-03-21T03:41:09;11.90;99.90
22738;DHT22;11536;50.860;4.286;2023-03-21T03:43:47;11.90;99.90
22738;DHT22;11536;50.860;4.286;2023-03-21T03:46:28;11.90;99.90
22738;DHT22;11536;50.860;4.286;2023-03-21T03:49:01;11.90;99.90
22738;DHT22;11536;50.860;4.286;2023-03-21T03:54:11;11.90;99.90
22738;DHT22;11536;50.860;4.286;2023-03-21T03:56:38;12.00;99.90
22738;DHT22;11536;50.860;4.286;2023-03-21T03:59:04;12.00;99.90
22738;DHT22;11536;50.860;4.286;2023-03-21T04:01:32;12.00;99.90
22738;DHT22;11536;50.860;4.286;2023-03-21T04:03:58;12.00;99.90
22738;DHT22;11536;50.860;4.286;2023-03-21T04:06:25;12.00;99.90
22738;DHT22;11536;50.860;4.286;2023-03-21T04:08:53;12.00;99.90
22738;DHT22;11536;50.860;4.286;2023-03-21T04:11:21;12.00;99.90
22738;DHT22;11536;50.860;4.286;2023-03-21T04:13:47;12.00;99.90
22738;DHT22;11536;50.860;4.286;2023-03-21T04:16:13;12.00;99.90
22738;DHT22;11536;50.860;4.286;2023-03-21T04:18:39;12.00;99.90
22738;DHT22;11536;50.860;4.286;2023-03-21T04:21:09;12.10;99.90
22738;DHT22;11536;50.860;4.286;2023-03-21T04:23:37;12.10;99.90
22738;DHT22;11536;50.860;4.286;2023-03-21T04:26:04;12.10;99.90
22738;DHT22;11536;50.860;4.286;2023-03-21T04:28:30;12.10;99.90
22738;DHT22;11536;50.860;4.286;2023-03-21T04:30:55;12.10;99.90
22738;DHT22;11536;50.860;4.286;2023-03-21T04:33:22;12.10;99.90
22738;DHT22;11536;50.860;4.286;2023-03-21T04:35:50;12.10;99.90
22738;DHT22;11536;50.860;4.286;2023-03-21T04:38:21;12.10;99.90
22738;DHT22;11536;50.860;4.286;2023-03-21T04:40:47;12.10;99.90
22738;DHT22;11536;50.860;4.286;2023-03-21T04:43:12;12.10;99.90
22738;DHT22;11536;50.860;4.286;2023-03-21T04:45:38;12.10;99.90
22738;DHT22;11536;50.860;4.286;2023-03-21T04:48:03;12.10;99.90
22738;DHT22;11536;50.860;4.286;2023-03-21T04:50:29;12.10;99.90
22738;DHT22;11536;50.860;4.286;2023-03-21T04:52:56;12.10;99.90
22738;DHT22;11536;50.860;4.286;2023-03-21T04:55:21;12.10;99.90
22738;DHT22;11536;50.860;4.286;2023-03-21T04:57:49;12.10;99.90
22738;DHT22;11536;50.860;4.286;2023-03-21T05:00:15;12.20;99.90
22738;DHT22;11536;50.860;4.286;2023-03-21T05:02:41;12.20;99.90
22738;DHT22;11536;50.860;4.286;2023-03-21T05:05:07;12.10;99.90
22738;DHT22;11536;50.860;4.286;2023-03-21T05:07:39;12.10;99.90
22738;DHT22;11536;50.860;4.286;2023-03-21T05:10:07;12.10;99.90
22738;DHT22;11536;50.860;4.286;2023-03-21T05:12:33;12.20;99.90
22738;DHT22;11536;50.860;4.286;2023-03-21T05:14:59;12.20;99.90
22738;DHT22;11536;50.860;4.286;2023-03-21T05:17:25;12.20;99.90
22738;DHT22;11536;50.860;4.286;2023-03-21T05:19:53;12.20;99.90
22738;DHT22;11536;50.860;4.286;2023-03-21T05:22:21;12.20;99.90
22738;DHT22;11536;50.860;4.286;2023-03-21T05:24:49;12.20;99.90
22738;DHT22;11536;50.860;4.286;2023-03-21T05:27:19;12.20;99.90
22738;DHT22;11536;50.860;4.286;2023-03-21T05:30:16;12.20;99.90
22738;DHT22;11536;50.860;4.286;2023-03-21T05:32:42;12.20;99.90
22738;DHT22;11536;50.860;4.286;2023-03-21T05:35:08;12.20;99.90
22738;DHT22;11536;50.860;4.286;2023-03-21T05:37:34;12.20;99.90
22738;DHT22;11536;50.860;4.286;2023-03-21T05:40:00;12.20;99.90
22738;DHT22;11536;50.860;4.286;2023-03-21T05:42:26;12.20;99.90
22738;DHT22;11536;50.860;4.286;2023-03-21T05:44:51;12.20;99.90
22738;DHT22;11536;50.860;4.286;2023-03-21T05:47:18;12.20;99.90
22738;DHT22;11536;50.860;4.286;2023-03-21T05:49:44;12.20;99.90
22738;DHT22;11536;50.860;4.286;2023-03-21T05:52:10;12.20;99.90
22738;DHT22;11536;50.860;4.286;2023-03-21T05:54:36;12.20;99.90
22738;DHT22;11536;50.860;4.286;2023-03-21T05:57:03;12.10;99.90
22738;DHT22;11536;50.860;4.286;2023-03-21T05:59:28;12.10;99.90
22738;DHT22;11536;50.860;4.286;2023-03-21T06:01:54;12.10;99.90
22738;DHT22;11536;50.860;4.286;2023-03-21T06:04:20;12.10;99.90
22738;DHT22;11536;50.860;4.286;2023-03-21T06:06:45;12.00;99.90
22738;DHT22;11536;50.860;4.286;2023-03-21T06:09:11;12.00;99.90
22738;DHT22;11536;50.860;4.286;2023-03-21T06:11:40;12.00;99.90
22738;DHT22;11536;50.860;4.286;2023-03-21T06:14:07;12.00;99.90
22738;DHT22;11536;50.860;4.286;2023-03-21T06:16:33;11.90;99.90
22738;DHT22;11536;50.860;4.286;2023-03-21T06:18:58;11.80;99.90
22738;DHT22;11536;50.860;4.286;2023-03-21T06:21:24;11.90;99.90
22738;DHT22;11536;50.860;4.286;2023-03-21T06:23:50;11.80;99.90
22738;DHT22;11536;50.860;4.286;2023-03-21T06:26:18;11.80;99.90
22738;DHT22;11536;50.860;4.286;2023-03-21T06:28:48;11.80;99.90
22738;DHT22;11536;50.860;4.286;2023-03-21T06:31:14;11.70;99.90
22738;DHT22;11536;50.860;4.286;2023-03-21T06:33:39;11.70;99.90
22738;DHT22;11536;50.860;4.286;2023-03-21T06:36:05;11.70;99.90
22738;DHT22;11536;50.860;4.286;2023-03-21T06:38:31;11.70;99.90
22738;DHT22;11536;50.860;4.286;2023-03-21T06:40:57;11.70;99.90
22738;DHT22;11536;50.860;4.286;2023-03-21T06:43:23;11.70;99.90
22738;DHT22;11536;50.860;4.286;2023-03-21T06:45:49;11.70;99.90
22738;DHT22;11536;50.860;4.286;2023-03-21T06:48:14;11.70;99.90
22738;DHT22;11536;50.860;4.286;2023-03-21T06:50:40;11.70;99.90
22738;DHT22;11536;50.860;4.286;2023-03-21T06:53:06;11.70;99.90
22738;DHT22;11536;50.860;4.286;2023-03-21T06:55:31;11.70;99.90
22738;DHT22;11536;50.860;4.286;2023-03-21T06:57:57;11.60;99.90
22738;DHT22;11536;50.860;4.286;2023-03-21T07:00:23;11.70;99.90
22738;DHT22;11536;50.860;4.286;2023-03-21T07:02:49;11.60;99.90
22738;DHT22;11536;50.860;4.286;2023-03-21T07:05:15;11.60;99.90
22738;DHT22;11536;50.860;4.286;2023-03-21T07:07:41;11.70;99.90
22738;DHT22;11536;50.860;4.286;2023-03-21T07:10:07;11.60;99.90
22738;DHT22;11536;50.860;4.286;2023-03-21T07:12:33;11.60;99.90
22738;DHT22;11536;50.860;4.286;2023-03-21T07:15:01;11.60;99.90
22738;DHT22;11536;50.860;4.286;2023-03-21T07:17:27;11.60;99.90
22738;DHT22;11536;50.860;4.286;2023-03-21T07:19:59;11.60;99.90
22738;DHT22;11536;50.860;4.286;2023-03-21T07:22:36;11.60;99.90
22738;DHT22;11536;50.860;4.286;2023-03-21T07:25:06;11.60;99.90
22738;DHT22;11536;50.860;4.286;2023-03-21T07:27:32;11.60;99.90
22738;DHT22;11536;50.860;4.286;2023-03-21T07:29:58;11.70;99.90
22738;DHT22;11536;50.860;4.286;2023-03-21T07:32:23;11.60;99.90
22738;DHT22;11536;50.860;4.286;2023-03-21T07:34:54;11.60;99.90
22738;DHT22;11536;50.860;4.286;2023-03-21T07:37:20;11.60;99.90
22738;DHT22;11536;50.860;4.286;2023-03-21T07:39:46;11.70;99.90
22738;DHT22;11536;50.860;4.286;2023-03-21T07:42:11;11.70;99.90
22738;DHT22;11536;50.860;4.286;2023-03-21T07:44:37;11.70;99.90
22738;DHT22;11536;50.860;4.286;2023-03-21T07:47:04;11.70;99.90
22738;DHT22;11536;50.860;4.286;2023-03-21T07:49:30;11.70;99.90
22738;DHT22;11536;50.860;4.286;2023-03-21T07:51:55;11.70;99.90
22738;DHT22;11536;50.860;4.286;2023-03-21T07:54:21;11.70;99.90
22738;DHT22;11536;50.860;4.286;2023-03-21T07:56:48;11.70;99.90
22738;DHT22;11536;50.860;4.286;2023-03-21T07:59:13;11.70;99.90
22738;DHT22;11536;50.860;4.286;2023-03-21T08:01:39;11.60;99.90
22738;DHT22;11536;50.860;4.286;2023-03-21T08:04:05;11.70;99.90
22738;DHT22;11536;50.860;4.286;2023-03-21T08:06:31;11.70;99.90
22738;DHT22;11536;50.860;4.286;2023-03-21T08:08:57;11.70;99.90
22738;DHT22;11536;50.860;4.286;2023-03-21T08:11:23;11.80;99.90
22738;DHT22;11536;50.860;4.286;2023-03-21T08:13:49;11.70;99.90
22738;DHT22;11536;50.860;4.286;2023-03-21T08:16:16;11.70;99.90
22738;DHT22;11536;50.860;4.286;2023-03-21T08:18:41;11.80;99.90
22738;DHT22;11536;50.860;4.286;2023-03-21T08:21:07;11.80;99.90
22738;DHT22;11536;50.860;4.286;2023-03-21T08:23:33;11.80;99.90
22738;DHT22;11536;50.860;4.286;2023-03-21T08:25:59;11.80;99.90
22738;DHT22;11536;50.860;4.286;2023-03-21T08:28:26;11.80;99.90
22738;DHT22;11536;50.860;4.286;2023-03-21T08:30:51;11.90;99.90
22738;DHT22;11536;50.860;4.286;2023-03-21T08:33:17;12.00;99.90
22738;DHT22;11536;50.860;4.286;2023-03-21T08:35:43;11.90;99.90
22738;DHT22;11536;50.860;4.286;2023-03-21T08:38:09;11.90;99.90
22738;DHT22;11536;50.860;4.286;2023-03-21T08:40:35;12.00;99.90
22738;DHT22;11536;50.860;4.286;2023-03-21T08:43:01;12.00;99.90
22738;DHT22;11536;50.860;4.286;2023-03-21T08:45:27;12.00;99.90
22738;DHT22;11536;50.860;4.286;2023-03-21T08:47:53;12.00;99.90
22738;DHT22;11536;50.860;4.286;2023-03-21T08:50:21;12.00;99.90
22738;DHT22;11536;50.860;4.286;2023-03-21T08:52:47;12.10;99.90
22738;DHT22;11536;50.860;4.286;2023-03-21T08:55:14;12.10;99.90
22738;DHT22;11536;50.860;4.286;2023-03-21T08:57:40;12.20;99.90
22738;DHT22;11536;50.860;4.286;2023-03-21T09:00:06;12.20;99.90
22738;DHT22;11536;50.860;4.286;2023-03-21T09:02:46;12.20;99.90
22738;DHT22;11536;50.860;4.286;2023-03-21T09:05:14;12.20;99.90
22738;DHT22;11536;50.860;4.286;2023-03-21T09:07:41;12.30;99.90
22738;DHT22;11536;50.860;4.286;2023-03-21T09:10:10;12.30;99.90
22738;DHT22;11536;50.860;4.286;2023-03-21T09:12:36;12.30;99.90
22738;DHT22;11536;50.860;4.286;2023-03-21T09:15:02;12.30;99.90
22738;DHT22;11536;50.860;4.286;2023-03-21T09:17:29;12.40;99.90
22738;DHT22;11536;50.860;4.286;2023-03-21T09:19:56;12.40;99.90
22738;DHT22;11536;50.860;4.286;2023-03-21T09:22:25;12.40;99.90
22738;DHT22;11536;50.860;4.286;2023-03-21T09:24:51;12.40;99.90
22738;DHT22;11536;50.860;4.286;2023-03-21T09:27:18;12.40;99.90
22738;DHT22;11536;50.860;4.286;2023-03-21T09:29:50;12.40;99.90
22738;DHT22;11536;50.860;4.286;2023-03-21T09:32:16;12.50;99.90
22738;DHT22;11536;50.860;4.286;2023-03-21T09:34:43;12.50;99.90
22738;DHT22;11536;50.860;4.286;2023-03-21T09:37:10;12.50;99.90
22738;DHT22;11536;50.860;4.286;2023-03-21T09:39:40;12.50;99.90
22738;DHT22;11536;50.860;4.286;2023-03-21T09:44:53;12.60;99.90
22738;DHT22;11536;50.860;4.286;2023-03-21T09:47:26;12.60;99.90
22738;DHT22;11536;50.860;4.286;2023-03-21T09:50:17;12.60;99.90
22738;DHT22;11536;50.860;4.286;2023-03-21T09:52:52;12.70;99.90
22738;DHT22;11536;50.860;4.286;2023-03-21T09:55:22;12.70;99.90
22738;DHT22;11536;50.860;4.286;2023-03-21T10:00:32;12.70;99.90
22738;DHT22;11536;50.860;4.286;2023-03-21T10:03:02;12.70;99.90
22738;DHT22;11536;50.860;4.286;2023-03-21T10:05:32;12.70;99.90
22738;DHT22;11536;50.860;4.286;2023-03-21T10:10:46;12.70;99.90
22738;DHT22;11536;50.860;4.286;2023-03-21T10:13:18;12.80;99.90
22738;DHT22;11536;50.860;4.286;2023-03-21T10:15:45;12.80;99.90
22738;DHT22;11536;50.860;4.286;2023-03-21T10:18:15;12.80;99.90
22738;DHT22;11536;50.860;4.286;2023-03-21T10:20:43;12.80;99.90
22738;DHT22;11536;50.860;4.286;2023-03-21T10:23:14;12.80;99.90
22738;DHT22;11536;50.860;4.286;2023-03-21T10:25:43;12.90;99.90
22738;DHT22;11536;50.860;4.286;2023-03-21T10:28:23;12.90;99.90
22738;DHT22;11536;50.860;4.286;2023-03-21T10:30:53;13.00;99.90
22738;DHT22;11536;50.860;4.286;2023-03-21T10:33:24;13.00;99.90
22738;DHT22;11536;50.860;4.286;2023-03-21T10:36:10;13.00;99.90
22738;DHT22;11536;50.860;4.286;2023-03-21T10:38:56;13.00;99.90
22738;DHT22;11536;50.860;4.286;2023-03-21T10:41:23;13.10;99.90
22738;DHT22;11536;50.860;4.286;2023-03-21T10:44:10;13.20;99.90
22738;DHT22;11536;50.860;4.286;2023-03-21T10:46:36;13.30;99.90
22738;DHT22;11536;50.860;4.286;2023-03-21T10:49:02;13.30;99.90
22738;DHT22;11536;50.860;4.286;2023-03-21T10:51:34;13.30;99.90
22738;DHT22;11536;50.860;4.286;2023-03-21T10:54:05;13.50;99.90
22738;DHT22;11536;50.860;4.286;2023-03-21T10:56:37;13.50;99.90
22738;DHT22;11536;50.860;4.286;2023-03-21T10:59:05;13.50;99.90
22738;DHT22;11536;50.860;4.286;2023-03-21T11:01:42;13.50;99.90
22738;DHT22;11536;50.860;4.286;2023-03-21T11:04:28;13.60;99.90
22738;DHT22;11536;50.860;4.286;2023-03-21T11:06:56;13.70;99.90
22738;DHT22;11536;50.860;4.286;2023-03-21T11:09:25;13.70;99.90
22738;DHT22;11536;50.860;4.286;2023-03-21T11:12:27;13.70;99.90
22738;DHT22;11536;50.860;4.286;2023-03-21T11:14:56;13.80;99.90
22738;DHT22;11536;50.860;4.286;2023-03-21T11:17:26;13.80;99.90
22738;DHT22;11536;50.860;4.286;2023-03-21T11:20:00;13.80;99.90
22738;DHT22;11536;50.860;4.286;2023-03-21T11:22:29;13.90;99.90
22738;DHT22;11536;50.860;4.286;2023-03-21T11:25:00;13.90;99.90
22738;DHT22;11536;50.860;4.286;2023-03-21T11:27:30;13.90;99.90
22738;DHT22;11536;50.860;4.286;2023-03-21T11:29:57;13.90;99.90
22738;DHT22;11536;50.860;4.286;2023-03-21T11:32:45;14.00;99.90
22738;DHT22;11536;50.860;4.286;2023-03-21T11:35:19;13.90;99.90
22738;DHT22;11536;50.860;4.286;2023-03-21T11:37:50;13.90;99.90
22738;DHT22;11536;50.860;4.286;2023-03-21T11:45:22;14.00;99.90
22738;DHT22;11536;50.860;4.286;2023-03-21T11:47:49;14.10;99.90
22738;DHT22;11536;50.860;4.286;2023-03-21T11:53:11;14.20;99.90
22738;DHT22;11536;50.860;4.286;2023-03-21T11:57:01;14.20;99.90
22738;DHT22;11536;50.860;4.286;2023-03-21T12:05:12;14.40;99.90
22738;DHT22;11536;50.860;4.286;2023-03-21T12:13:53;14.50;99.90
22738;DHT22;11536;50.860;4.286;2023-03-21T12:21:19;14.50;99.90
22738;DHT22;11536;50.860;4.286;2023-03-21T12:26:31;14.50;99.90
22738;DHT22;11536;50.860;4.286;2023-03-21T12:39:34;14.50;99.90
22738;DHT22;11536;50.860;4.286;2023-03-21T12:44:46;14.50;99.90
22738;DHT22;11536;50.860;4.286;2023-03-21T12:47:25;14.50;99.90
22738;DHT22;11536;50.860;4.286;2023-03-21T12:50:03;14.50;99.90
22738;DHT22;11536;50.860;4.286;2023-03-21T12:52:38;14.50;99.90
22738;DHT22;11536;50.860;4.286;2023-03-21T12:57:54;14.50;99.90
22738;DHT22;11536;50.860;4.286;2023-03-21T13:00:36;14.60;99.90
22738;DHT22;11536;50.860;4.286;2023-03-21T13:03:15;14.60;99.90
22738;DHT22;11536;50.860;4.286;2023-03-21T13:05:52;14.60;99.90
22738;DHT22;11536;50.860;4.286;2023-03-21T13:08:29;14.70;99.90
22738;DHT22;11536;50.860;4.286;2023-03-21T13:11:00;14.70;99.90
22738;DHT22;11536;50.860;4.286;2023-03-21T13:13:46;14.70;99.90
22738;DHT22;11536;50.860;4.286;2023-03-21T13:16:32;14.70;99.90
22738;DHT22;11536;50.860;4.286;2023-03-21T13:21:53;14.80;99.90
22738;DHT22;11536;50.860;4.286;2023-03-21T13:24:41;14.80;99.90
22738;DHT22;11536;50.860;4.286;2023-03-21T13:32:54;14.80;99.90
22738;DHT22;11536;50.860;4.286;2023-03-21T13:35:35;14.80;99.90
22738;DHT22;11536;50.860;4.286;2023-03-21T13:38:24;14.80;99.90
22738;DHT22;11536;50.860;4.286;2023-03-21T13:51:42;14.90;99.90
22738;DHT22;11536;50.860;4.286;2023-03-21T13:54:22;14.90;99.90
22738;DHT22;11536;50.860;4.286;2023-03-21T13:56:49;14.90;99.90
22738;DHT22;11536;50.860;4.286;2023-03-21T13:59:37;14.90;99.90
22738;DHT22;11536;50.860;4.286;2023-03-21T14:04:39;14.90;99.90
22738;DHT22;11536;50.860;4.286;2023-03-21T14:07:10;14.80;99.90
22738;DHT22;11536;50.860;4.286;2023-03-21T14:09:37;14.80;99.90
22738;DHT22;11536;50.860;4.286;2023-03-21T14:12:17;14.80;99.90
22738;DHT22;11536;50.860;4.286;2023-03-21T14:14:51;14.80;99.90
22738;DHT22;11536;50.860;4.286;2023-03-21T14:17:23;14.80;99.90
22738;DHT22;11536;50.860;4.286;2023-03-21T14:19:54;14.80;99.90
22738;DHT22;11536;50.860;4.286;2023-03-21T14:22:21;14.80;99.90
22738;DHT22;11536;50.860;4.286;2023-03-21T14:25:00;14.80;99.90
22738;DHT22;11536;50.860;4.286;2023-03-21T14:27:32;14.90;99.90
22738;DHT22;11536;50.860;4.286;2023-03-21T14:29:58;14.90;99.90
22738;DHT22;11536;50.860;4.286;2023-03-21T14:32:28;14.90;99.90
22738;DHT22;11536;50.860;4.286;2023-03-21T14:34:55;14.90;99.90
22738;DHT22;11536;50.860;4.286;2023-03-21T14:37:37;14.90;99.90
22738;DHT22;11536;50.860;4.286;2023-03-21T14:40:06;14.80;99.90
22738;DHT22;11536;50.860;4.286;2023-03-21T14:42:36;14.80;99.90
22738;DHT22;11536;50.860;4.286;2023-03-21T14:47:54;14.70;99.90
22738;DHT22;11536;50.860;4.286;2023-03-21T14:50:45;14.70;99.90
22738;DHT22;11536;50.860;4.286;2023-03-21T14:53:24;14.70;99.90
22738;DHT22;11536;50.860;4.286;2023-03-21T14:58:27;14.60;99.90
22738;DHT22;11536;50.860;4.286;2023-03-21T15:00:57;14.60;99.90
22738;DHT22;11536;50.860;4.286;2023-03-21T15:03:25;14.60;99.90
22738;DHT22;11536;50.860;4.286;2023-03-21T15:05:55;14.50;99.90
22738;DHT22;11536;50.860;4.286;2023-03-21T15:08:28;14.50;99.90
22738;DHT22;11536;50.860;4.286;2023-03-21T15:10:58;14.50;99.90
22738;DHT22;11536;50.860;4.286;2023-03-21T15:13:28;14.50;99.90
22738;DHT22;11536;50.860;4.286;2023-03-21T15:15:54;14.50;99.90
22738;DHT22;11536;50.860;4.286;2023-03-21T15:18:43;14.50;99.90
22738;DHT22;11536;50.860;4.286;2023-03-21T15:21:14;14.50;99.90
22738;DHT22;11536;50.860;4.286;2023-03-21T15:23:43;14.50;99.90
22738;DHT22;11536;50.860;4.286;2023-03-21T15:26:19;14.50;99.90
22738;DHT22;11536;50.860;4.286;2023-03-21T15:28:54;14.60;99.90
22738;DHT22;11536;50.860;4.286;2023-03-21T15:31:23;14.60;99.90
22738;DHT22;11536;50.860;4.286;2023-03-21T15:33:52;14.60;99.90
22738;DHT22;11536;50.860;4.286;2023-03-21T15:36:21;14.50;99.90
22738;DHT22;11536;50.860;4.286;2023-03-21T15:38:47;14.60;99.90
22738;DHT22;11536;50.860;4.286;2023-03-21T15:43:49;14.50;99.90
22738;DHT22;11536;50.860;4.286;2023-03-21T15:49:30;14.40;99.90
22738;DHT22;11536;50.860;4.286;2023-03-21T15:52:16;14.40;99.90
22738;DHT22;11536;50.860;4.286;2023-03-21T15:54:49;14.40;99.90
22738;DHT22;11536;50.860;4.286;2023-03-21T15:57:23;14.40;99.90
22738;DHT22;11536;50.860;4.286;2023-03-21T15:59:49;14.40;99.90
22738;DHT22;11536;50.860;4.286;2023-03-21T16:02:21;14.40;99.90
22738;DHT22;11536;50.860;4.286;2023-03-21T16:04:58;14.40;99.90
22738;DHT22;11536;50.860;4.286;2023-03-21T16:07:24;14.40;99.90
22738;DHT22;11536;50.860;4.286;2023-03-21T16:09:58;14.30;99.90
22738;DHT22;11536;50.860;4.286;2023-03-21T16:12:23;14.30;99.90
22738;DHT22;11536;50.860;4.286;2023-03-21T16:14:49;14.20;99.90
22738;DHT22;11536;50.860;4.286;2023-03-21T16:17:39;14.20;99.90
22738;DHT22;11536;50.860;4.286;2023-03-21T16:20:19;14.30;99.90
22738;DHT22;11536;50.860;4.286;2023-03-21T16:22:46;14.30;99.90
22738;DHT22;11536;50.860;4.286;2023-03-21T16:25:12;14.20;99.90
22738;DHT22;11536;50.860;4.286;2023-03-21T16:27:38;14.20;99.90
22738;DHT22;11536;50.860;4.286;2023-03-21T16:30:05;14.30;99.90
22738;DHT22;11536;50.860;4.286;2023-03-21T16:32:32;14.30;99.90
22738;DHT22;11536;50.860;4.286;2023-03-21T16:34:59;14.30;99.90
22738;DHT22;11536;50.860;4.286;2023-03-21T16:37:24;14.40;99.90
22738;DHT22;11536;50.860;4.286;2023-03-21T16:39:50;14.40;99.90
22738;DHT22;11536;50.860;4.286;2023-03-21T16:42:16;14.50;99.90
22738;DHT22;11536;50.860;4.286;2023-03-21T16:44:44;14.50;99.90
22738;DHT22;11536;50.860;4.286;2023-03-21T16:47:18;14.40;99.90
22738;DHT22;11536;50.860;4.286;2023-03-21T16:49:45;14.40;99.90
22738;DHT22;11536;50.860;4.286;2023-03-21T16:52:11;14.40;99.90
22738;DHT22;11536;50.860;4.286;2023-03-21T16:54:39;14.40;99.90
22738;DHT22;11536;50.860;4.286;2023-03-21T16:57:07;14.40;99.90
22738;DHT22;11536;50.860;4.286;2023-03-21T16:59:34;14.40;99.90
22738;DHT22;11536;50.860;4.286;2023-03-21T17:02:01;14.30;99.90
22738;DHT22;11536;50.860;4.286;2023-03-21T17:04:27;14.40;99.90
22738;DHT22;11536;50.860;4.286;2023-03-21T17:06:53;14.30;99.90
22738;DHT22;11536;50.860;4.286;2023-03-21T17:09:23;14.40;99.90
22738;DHT22;11536;50.860;4.286;2023-03-21T17:11:51;14.30;99.90
22738;DHT22;11536;50.860;4.286;2023-03-21T17:14:17;14.30;99.90
22738;DHT22;11536;50.860;4.286;2023-03-21T17:16:44;14.30;99.90
22738;DHT22;11536;50.860;4.286;2023-03-21T17:19:18;14.30;99.90
22738;DHT22;11536;50.860;4.286;2023-03-21T17:21:44;14.30;99.90
22738;DHT22;11536;50.860;4.286;2023-03-21T17:24:10;14.20;99.90
22738;DHT22;11536;50.860;4.286;2023-03-21T17:26:36;14.20;99.90
22738;DHT22;11536;50.860;4.286;2023-03-21T17:29:03;14.30;99.90
22738;DHT22;11536;50.860;4.286;2023-03-21T17:31:34;14.20;99.90
22738;DHT22;11536;50.860;4.286;2023-03-21T17:34:00;14.20;99.90
22738;DHT22;11536;50.860;4.286;2023-03-21T17:36:37;14.20;99.90
22738;DHT22;11536;50.860;4.286;2023-03-21T17:39:05;14.20;99.90
22738;DHT22;11536;50.860;4.286;2023-03-21T17:41:31;14.20;99.90
22738;DHT22;11536;50.860;4.286;2023-03-21T17:43:57;14.20;99.90